createdAt,value
2023-04-15T00:01:25.709Z,7.08
2023-04-15T00:03:57.687Z,7.13
2023-04-15T00:06:28.505Z,7.27
2023-04-15T00:09:00.929Z,7.34
2023-04-15T00:11:31.923Z,7.42
2023-04-15T00:14:02.448Z,7.28
2023-04-15T00:16:33.030Z,7.57
2023-04-15T00:19:03.724Z,7.67
2023-04-15T00:21:34.353Z,7.63
2023-04-15T00:24:06.573Z,7.57
2023-04-15T00:26:37.083Z,7.41
2023-04-15T00:29:07.650Z,7.52
2023-04-15T00:31:38.079Z,7.28
2023-04-15T00:34:08.632Z,7.15
2023-04-15T00:36:39.159Z,6.65
2023-04-15T00:39:11.650Z,6.98
2023-04-15T00:41:42.207Z,7.45
2023-04-15T00:44:13.016Z,7.95
2023-04-15T00:46:44.460Z,7.74
2023-04-15T00:49:15.683Z,7.58
2023-04-15T00:51:46.400Z,7.62
2023-04-15T00:54:18.856Z,7.87
2023-04-15T00:56:49.374Z,8.05
2023-04-15T00:59:21.334Z,8.32
2023-04-15T01:01:52.806Z,8.47
2023-04-15T01:04:23.950Z,8.58
2023-04-15T01:06:54.668Z,8.88
2023-04-15T01:09:26.913Z,8.94
2023-04-15T01:11:57.983Z,8.56
2023-04-15T01:14:28.708Z,8.27
2023-04-15T01:16:59.352Z,7.74
2023-04-15T01:19:29.904Z,7.63
2023-04-15T01:22:00.526Z,7.57
2023-04-15T01:24:34.411Z,7.37
2023-04-15T01:27:07.571Z,7.83
2023-04-15T01:29:46.962Z,8.07
2023-04-15T01:32:17.667Z,7.98
2023-04-15T01:34:48.205Z,8.11
2023-04-15T01:37:18.778Z,7.98
2023-04-15T01:39:49.386Z,7.86
2023-04-15T01:42:21.761Z,7.66
2023-04-15T01:44:52.848Z,7.19
2023-04-15T01:47:23.431Z,7.11
2023-04-15T01:49:53.948Z,7.55
2023-04-15T01:52:24.521Z,7.86
2023-04-15T01:54:55.116Z,8.35
2023-04-15T01:57:27.280Z,8.77
2023-04-15T01:59:57.658Z,9.07
2023-04-15T02:02:28.487Z,9.25
2023-04-15T02:04:59.107Z,8.63
2023-04-15T02:07:33.080Z,8.26
2023-04-15T02:10:03.754Z,7.82
2023-04-15T02:12:35.898Z,7.73
2023-04-15T02:15:06.762Z,7.90
2023-04-15T02:17:38.439Z,8.40
2023-04-15T02:20:10.196Z,9.03
2023-04-15T02:22:40.748Z,9.21
2023-04-15T02:25:12.598Z,9.13
2023-04-15T02:27:44.749Z,9.24
2023-04-15T02:30:15.390Z,9.53
2023-04-15T02:32:46.027Z,9.37
2023-04-15T02:35:16.522Z,8.96
2023-04-15T02:37:47.462Z,8.00
2023-04-15T02:40:18.031Z,7.40
2023-04-15T02:42:50.332Z,6.97
2023-04-15T02:45:24.557Z,7.18
2023-04-15T02:47:55.205Z,7.29
2023-04-15T02:50:26.470Z,7.50
2023-04-15T02:52:57.018Z,7.06
2023-04-15T02:55:27.645Z,6.76
2023-04-15T02:58:01.960Z,7.21
2023-04-15T03:00:32.566Z,7.76
2023-04-15T03:03:09.519Z,7.74
2023-04-15T03:05:40.949Z,7.73
2023-04-15T03:08:11.604Z,7.51
2023-04-15T03:10:45.091Z,7.55
2023-04-15T03:13:17.472Z,7.76
2023-04-15T03:15:49.892Z,7.93
2023-04-15T03:18:21.031Z,7.93
2023-04-15T03:20:51.837Z,7.88
2023-04-15T03:23:22.403Z,7.35
2023-04-15T03:25:52.932Z,7.05
2023-04-15T03:28:25.068Z,6.77
2023-04-15T03:30:55.581Z,6.96
2023-04-15T03:33:26.309Z,6.94
2023-04-15T03:35:56.958Z,6.96
2023-04-15T03:38:27.974Z,7.63
2023-04-15T03:40:58.619Z,8.33
2023-04-15T03:43:30.781Z,8.64
2023-04-15T03:46:01.996Z,8.83
2023-04-15T03:48:32.713Z,8.50
2023-04-15T03:51:03.339Z,7.84
2023-04-15T03:53:33.806Z,7.23
2023-04-15T03:56:04.357Z,7.02
2023-04-15T03:58:36.735Z,7.23
2023-04-15T04:01:07.321Z,7.49
2023-04-15T04:03:38.218Z,7.56
2023-04-15T04:06:09.013Z,7.60
2023-04-15T04:08:39.735Z,7.44
2023-04-15T04:11:12.959Z,7.60
2023-04-15T04:13:45.259Z,7.64
2023-04-15T04:16:15.917Z,7.78
2023-04-15T04:18:46.602Z,7.89
2023-04-15T04:21:17.245Z,8.11
2023-04-15T04:23:47.734Z,8.13
2023-04-15T04:26:18.292Z,8.09
2023-04-15T04:28:50.386Z,7.87
2023-04-15T04:31:21.090Z,7.81
2023-04-15T04:33:51.712Z,8.27
2023-04-15T04:36:22.388Z,8.13
2023-04-15T04:38:52.966Z,7.95
2023-04-15T04:41:23.725Z,8.18
2023-04-15T04:43:55.882Z,8.51
2023-04-15T04:46:26.576Z,8.83
2023-04-15T04:48:57.116Z,8.62
2023-04-15T04:51:28.781Z,8.29
2023-04-15T04:54:00.810Z,8.25
2023-04-15T04:56:32.241Z,8.27
2023-04-15T04:59:04.491Z,8.55
2023-04-15T05:01:37.864Z,8.71
2023-04-15T05:04:08.756Z,8.38
2023-04-15T05:06:39.375Z,8.23
2023-04-15T05:09:09.974Z,8.36
2023-04-15T05:11:40.485Z,8.33
2023-04-15T05:14:12.742Z,8.14
2023-04-15T05:16:43.254Z,8.34
2023-04-15T05:19:14.010Z,8.21
2023-04-15T05:21:44.568Z,8.29
2023-04-15T05:24:15.296Z,8.43
2023-04-15T05:26:45.787Z,8.62
2023-04-15T05:29:18.119Z,8.86
2023-04-15T05:31:48.512Z,8.71
2023-04-15T05:34:19.010Z,8.66
2023-04-15T05:36:49.479Z,8.77
2023-04-15T05:39:20.029Z,8.52
2023-04-15T05:41:50.590Z,8.88
2023-04-15T05:44:22.631Z,8.75
2023-04-15T05:46:53.013Z,8.66
2023-04-15T05:49:23.440Z,8.73
2023-04-15T05:51:53.857Z,9.38
2023-04-15T05:54:24.494Z,9.07
2023-04-15T05:56:54.838Z,8.59
2023-04-15T05:59:26.861Z,8.27
2023-04-15T06:01:57.414Z,8.57
2023-04-15T06:04:28.135Z,8.52
2023-04-15T06:06:58.663Z,8.35
2023-04-15T06:09:29.966Z,8.19
2023-04-15T06:12:02.525Z,8.03
2023-04-15T06:14:34.896Z,8.04
2023-04-15T06:17:05.398Z,8.24
2023-04-15T06:19:37.037Z,8.47
2023-04-15T06:22:08.071Z,8.36
2023-04-15T06:24:38.571Z,8.32
2023-04-15T06:27:08.978Z,8.27
2023-04-15T06:29:41.058Z,7.81
2023-04-15T06:32:11.773Z,8.00
2023-04-15T06:34:42.427Z,8.03
2023-04-15T06:37:16.916Z,7.90
2023-04-15T06:39:47.390Z,7.72
2023-04-15T06:42:18.186Z,7.66
2023-04-15T06:44:50.851Z,7.56
2023-04-15T06:47:21.252Z,7.72
2023-04-15T06:49:51.794Z,7.64
2023-04-15T06:52:22.619Z,7.66
2023-04-15T06:54:53.213Z,7.66
2023-04-15T06:57:23.809Z,7.60
2023-04-15T06:59:56.295Z,7.58
2023-04-15T07:02:27.218Z,7.47
2023-04-15T07:04:57.900Z,7.50
2023-04-15T07:07:28.549Z,7.41
2023-04-15T07:09:58.959Z,7.23
2023-04-15T07:12:29.740Z,7.21
2023-04-15T07:15:01.840Z,7.19
2023-04-15T07:17:32.431Z,7.18
2023-04-15T07:20:02.860Z,7.17
2023-04-15T07:22:33.356Z,7.02
2023-04-15T07:25:03.978Z,6.97
2023-04-15T07:27:34.422Z,6.94
2023-04-15T07:30:06.754Z,6.78
2023-04-15T07:32:37.064Z,6.76
2023-04-15T07:35:07.960Z,6.71
2023-04-15T07:37:38.353Z,6.72
2023-04-15T07:40:09.949Z,6.65
2023-04-15T07:42:41.414Z,6.65
2023-04-15T07:45:14.496Z,6.78
2023-04-15T07:47:45.016Z,6.63
2023-04-15T07:50:15.682Z,6.36
2023-04-15T07:52:46.225Z,6.52
2023-04-15T07:55:18.452Z,6.41
2023-04-15T07:57:49.451Z,6.33
2023-04-15T08:00:22.674Z,6.23
2023-04-15T08:02:54.828Z,6.02
2023-04-15T08:05:25.577Z,6.00
2023-04-15T08:07:56.183Z,5.79
2023-04-15T08:10:26.661Z,5.98
2023-04-15T08:12:58.419Z,5.59
2023-04-15T08:15:30.502Z,5.73
2023-04-15T08:18:01.570Z,5.68
2023-04-15T08:20:31.939Z,5.66
2023-04-15T08:23:02.266Z,5.62
2023-04-15T08:25:32.757Z,5.54
2023-04-15T08:28:08.840Z,5.57
2023-04-15T08:30:40.995Z,5.40
2023-04-15T08:33:11.356Z,5.46
2023-04-15T08:35:41.696Z,5.33
2023-04-15T08:38:12.207Z,5.17
2023-04-15T08:40:45.941Z,4.81
2023-04-15T08:43:23.435Z,5.01
2023-04-15T08:45:56.277Z,4.98
2023-04-15T08:48:28.126Z,4.90
2023-04-15T08:50:59.846Z,4.82
2023-04-15T08:53:31.943Z,4.72
2023-04-15T08:56:07.875Z,4.64
2023-04-15T08:58:39.131Z,4.53
2023-04-15T09:01:14.385Z,4.42
2023-04-15T09:03:48.742Z,4.26
2023-04-15T09:06:20.598Z,4.00
2023-04-15T09:08:51.328Z,4.02
2023-04-15T09:11:22.169Z,3.74
2023-04-15T09:13:53.293Z,3.67
2023-04-15T09:16:25.422Z,3.58
2023-04-15T09:18:59.375Z,3.46
2023-04-15T09:21:30.430Z,3.36
2023-04-15T09:24:03.846Z,3.26
2023-04-15T09:26:36.566Z,3.07
2023-04-15T09:29:11.369Z,3.06
2023-04-15T09:31:44.353Z,3.00
2023-04-15T09:34:15.216Z,2.99
2023-04-15T09:36:57.072Z,2.76
2023-04-15T09:39:28.399Z,2.57
2023-04-15T09:42:09.404Z,2.27
2023-04-15T09:44:42.778Z,2.25
2023-04-15T09:47:31.776Z,2.20
2023-04-15T09:50:03.366Z,2.16
2023-04-15T09:52:35.126Z,2.14
2023-04-15T09:55:05.623Z,2.10
2023-04-15T09:57:40.122Z,2.00
2023-04-15T10:00:12.216Z,1.47
2023-04-15T10:02:46.165Z,1.87
2023-04-15T10:05:19.035Z,1.84
2023-04-15T10:07:50.114Z,1.69
2023-04-15T10:10:23.031Z,1.59
2023-04-15T10:12:55.169Z,1.57
2023-04-15T10:15:27.097Z,1.60
2023-04-15T10:18:03.748Z,1.61
2023-04-15T10:20:34.571Z,1.70
2023-04-15T10:23:09.921Z,1.71
2023-04-15T10:25:44.782Z,1.67
2023-04-15T10:28:16.449Z,1.28
2023-04-15T10:30:50.690Z,1.45
2023-04-15T10:33:34.461Z,1.28
2023-04-15T10:36:08.175Z,1.17
2023-04-15T10:38:42.049Z,1.04
2023-04-15T10:41:26.452Z,0.60
2023-04-15T10:44:01.274Z,0.97
2023-04-15T10:46:39.646Z,1.04
2023-04-15T10:49:16.448Z,0.84
2023-04-15T10:51:48.433Z,1.05
2023-04-15T10:54:37.155Z,0.34
2023-04-15T10:57:19.661Z,0.60
2023-04-15T11:00:13.863Z,0.31
2023-04-15T11:02:51.138Z,0.08
2023-04-15T11:05:25.619Z,-0.17
2023-04-15T11:07:57.968Z,-0.38
2023-04-15T11:10:56.251Z,-0.51
2023-04-15T11:13:37.021Z,-0.72
2023-04-15T11:16:10.594Z,-1.06
2023-04-15T11:18:41.008Z,-0.80
2023-04-15T11:21:13.182Z,-0.85
2023-04-15T11:23:48.275Z,-0.84
2023-04-15T11:26:22.919Z,-0.92
2023-04-15T11:28:55.659Z,-0.92
2023-04-15T11:31:32.738Z,-1.00
2023-04-15T11:34:06.719Z,-1.05
2023-04-15T11:36:39.511Z,-1.07
2023-04-15T11:39:10.918Z,-1.12
2023-04-15T11:41:41.536Z,-1.21
2023-04-15T11:44:20.321Z,-1.21
2023-04-15T11:46:51.098Z,-1.27
2023-04-15T11:49:30.950Z,-1.24
2023-04-15T11:52:03.081Z,-1.23
2023-04-15T11:54:33.493Z,-1.17
2023-04-15T11:57:04.437Z,-1.18
2023-04-15T11:59:48.239Z,-1.17
2023-04-15T12:02:19.078Z,-1.23
2023-04-15T12:04:50.273Z,-1.18
2023-04-15T12:07:22.459Z,-1.16
2023-04-15T12:10:00.279Z,-1.31
2023-04-15T12:12:34.037Z,-1.46
2023-04-15T12:15:04.604Z,-1.55
2023-04-15T12:17:51.606Z,-1.49
2023-04-15T12:20:28.810Z,-1.51
2023-04-15T12:23:10.595Z,-1.58
2023-04-15T12:25:43.596Z,-1.57
2023-04-15T12:28:16.862Z,-1.55
2023-04-15T12:30:53.378Z,-1.62
2023-04-15T12:33:26.372Z,-1.67
2023-04-15T12:35:56.797Z,-1.66
2023-04-15T12:38:32.216Z,-1.60
2023-04-15T12:41:02.778Z,-1.53
2023-04-15T12:43:33.302Z,-1.51
2023-04-15T12:46:03.811Z,-1.54
2023-04-15T12:48:37.324Z,-1.63
2023-04-15T12:51:07.822Z,-1.68
2023-04-15T12:53:47.140Z,-1.62
2023-04-15T12:56:20.832Z,-1.67
2023-04-15T12:58:51.307Z,-1.63
2023-04-15T13:01:21.798Z,-1.59
2023-04-15T13:03:54.627Z,-1.53
2023-04-15T13:06:28.205Z,-1.49
2023-04-15T13:09:05.255Z,-1.35
2023-04-15T13:11:37.340Z,-1.50
2023-04-15T13:14:11.958Z,-1.21
2023-04-15T13:16:44.422Z,-1.12
2023-04-15T13:19:16.589Z,-1.12
2023-04-15T13:21:47.201Z,-1.13
2023-04-15T13:24:21.330Z,-1.09
2023-04-15T13:26:51.924Z,-1.07
2023-04-15T13:29:23.013Z,-1.21
2023-04-15T13:31:55.505Z,-1.41
2023-04-15T13:34:26.051Z,-1.47
2023-04-15T13:36:56.568Z,-1.48
2023-04-15T13:39:28.693Z,-1.44
2023-04-15T13:41:59.108Z,-1.39
2023-04-15T13:44:29.787Z,-1.34
2023-04-15T13:47:04.543Z,-1.32
2023-04-15T13:49:34.929Z,-1.29
2023-04-15T13:52:08.571Z,-1.29
2023-04-15T13:54:41.998Z,-1.33
2023-04-15T13:57:12.683Z,-1.33
2023-04-15T13:59:43.178Z,-1.32
2023-04-15T14:03:02.023Z,-1.22
2023-04-15T14:05:35.435Z,-1.24
2023-04-15T14:08:08.468Z,-1.23
2023-04-15T14:10:42.630Z,-1.25
2023-04-15T14:13:13.099Z,-1.27
2023-04-15T14:15:43.808Z,-1.24
2023-04-15T14:18:14.370Z,-1.31
2023-04-15T14:20:44.747Z,-1.41
2023-04-15T14:23:17.318Z,-1.57
2023-04-15T14:25:49.477Z,-1.84
2023-04-15T14:28:20.113Z,-1.94
2023-04-15T14:30:50.740Z,-2.00
2023-04-15T14:33:23.909Z,-2.03
2023-04-15T14:35:54.928Z,-2.13
2023-04-15T14:38:25.465Z,-2.20
2023-04-15T14:40:57.564Z,-2.17
2023-04-15T14:43:28.091Z,-2.21
2023-04-15T14:46:01.766Z,-2.23
2023-04-15T14:48:33.660Z,-2.14
2023-04-15T14:51:08.745Z,-2.14
2023-04-15T14:53:40.295Z,-2.17
2023-04-15T14:56:42.526Z,-2.14
2023-04-15T14:59:26.925Z,-2.08
2023-04-15T15:02:37.384Z,-2.06
2023-04-15T15:05:12.044Z,-2.06
2023-04-15T15:08:22.315Z,-2.07
2023-04-15T15:10:53.076Z,-2.32
2023-04-15T15:13:26.250Z,-2.04
2023-04-15T15:16:10.963Z,-1.98
2023-04-15T15:18:42.461Z,-1.97
2023-04-15T15:21:19.323Z,-1.98
2023-04-15T15:23:51.213Z,-1.97
2023-04-15T15:26:31.336Z,-1.96
2023-04-15T15:29:06.501Z,-1.89
2023-04-15T15:31:41.680Z,-1.84
2023-04-15T15:34:12.264Z,-1.83
2023-04-15T15:36:47.884Z,-1.77
2023-04-15T15:39:19.262Z,-1.69
2023-04-15T15:41:51.636Z,-1.69
2023-04-15T15:44:24.274Z,-1.65
2023-04-15T15:46:56.382Z,-1.70
2023-04-15T15:49:30.804Z,-1.98
2023-04-15T15:52:01.661Z,-2.00
2023-04-15T15:54:32.741Z,-2.04
2023-04-15T15:57:11.075Z,-1.99
2023-04-15T16:16:20.262Z,-1.88
2023-04-15T16:19:33.906Z,-1.89
2023-04-15T16:22:34.393Z,-1.79
2023-04-15T16:25:07.525Z,-1.77
2023-04-15T16:30:22.011Z,-1.75
2023-04-15T16:32:55.375Z,-2.17
2023-04-15T16:35:27.986Z,-1.69
2023-04-15T16:38:01.010Z,-1.66
2023-04-15T16:40:31.586Z,-1.65
2023-04-15T16:43:08.101Z,-1.71
2023-04-15T16:45:40.620Z,-1.78
2023-04-15T16:48:14.631Z,-1.89
2023-04-15T16:50:45.078Z,-1.92
2023-04-15T16:53:15.844Z,-2.02
2023-04-15T16:56:25.803Z,-1.98
2023-04-15T17:02:29.049Z,-1.87
2023-04-15T17:05:01.409Z,-1.84
2023-04-15T17:07:34.817Z,-1.86
2023-04-15T17:10:20.404Z,-1.76
2023-04-15T17:12:52.888Z,-1.71
2023-04-15T17:15:23.626Z,-1.81
2023-04-15T17:17:54.278Z,-1.60
2023-04-15T17:20:29.238Z,-1.66
2023-04-15T17:22:59.761Z,-1.71
2023-04-15T17:25:31.494Z,-1.71
2023-04-15T17:28:02.122Z,-1.74
2023-04-15T17:30:32.758Z,-1.76
2023-04-15T17:33:03.313Z,-1.75
2023-04-15T17:35:55.461Z,-1.70
2023-04-15T17:38:25.980Z,-1.62
2023-04-15T17:40:56.478Z,-2.27
2023-04-15T17:43:29.152Z,-1.59
2023-04-15T17:46:02.648Z,-1.67
2023-04-15T17:48:33.292Z,-1.78
2023-04-15T17:51:05.506Z,-1.84
2023-04-15T17:53:36.190Z,-1.97
2023-04-15T17:56:07.042Z,-1.88
2023-04-15T17:58:40.318Z,-1.93
2023-04-15T18:01:10.766Z,-1.96
2023-04-15T18:03:41.457Z,-1.87
2023-04-15T18:06:17.743Z,-1.85
2023-04-15T18:08:48.243Z,-1.84
2023-04-15T18:11:18.900Z,-1.89
2023-04-15T18:13:52.335Z,-1.99
2023-04-15T18:16:23.017Z,-1.99
2023-04-15T18:18:56.278Z,-1.96
2023-04-15T18:21:28.892Z,-2.01
2023-04-15T18:24:00.508Z,-2.11
2023-04-15T18:26:31.593Z,-2.18
2023-04-15T18:32:25.558Z,-1.90
2023-04-15T18:34:57.974Z,-1.84
2023-04-15T18:37:31.312Z,-1.88
2023-04-15T18:40:04.945Z,-1.96
2023-04-15T18:43:07.993Z,-1.68
2023-04-15T18:45:38.645Z,-1.64
2023-04-15T18:48:09.297Z,-1.60
2023-04-15T18:50:39.747Z,-1.77
2023-04-15T18:53:11.915Z,-1.88
2023-04-15T18:55:43.201Z,-1.97
2023-04-15T18:58:16.734Z,-2.08
2023-04-15T19:00:50.011Z,-2.02
2023-04-15T19:03:23.189Z,-1.86
2023-04-15T19:05:56.606Z,-1.92
2023-04-15T19:08:30.228Z,-1.89
2023-04-15T19:11:00.703Z,-1.86
2023-04-15T19:13:31.144Z,-1.87
2023-04-15T19:16:04.287Z,-1.90
2023-04-15T19:18:37.021Z,-1.98
2023-04-15T19:21:10.124Z,-1.97
2023-04-15T19:23:45.250Z,-1.88
2023-04-15T19:26:20.673Z,-1.79
2023-04-15T19:28:54.644Z,-1.70
2023-04-15T19:31:27.763Z,-1.74
2023-04-15T19:34:01.002Z,-1.84
2023-04-15T19:36:32.284Z,-1.57
2023-04-15T19:39:09.733Z,-1.57
2023-04-15T19:41:40.559Z,-1.42
2023-04-15T19:44:13.567Z,-1.55
2023-04-15T19:46:45.697Z,-1.76
2023-04-15T19:49:16.116Z,-1.81
2023-04-15T19:51:50.438Z,-1.85
2023-04-15T19:54:22.566Z,-1.76
2023-04-15T19:56:52.991Z,-1.63
2023-04-15T19:59:23.532Z,-1.59
2023-04-15T20:01:54.941Z,-1.61
2023-04-15T20:04:25.576Z,-1.46
2023-04-15T20:06:56.574Z,-1.31
2023-04-15T20:09:28.653Z,-1.22
2023-04-15T20:12:46.093Z,-1.13
2023-04-15T20:14:50.076Z,-1.04
2023-04-15T20:17:20.484Z,-1.05
2023-04-15T20:19:50.852Z,-0.87
2023-04-15T20:22:21.252Z,-0.62
2023-04-15T20:24:53.243Z,-0.56
2023-04-15T20:27:24.228Z,-0.67
2023-04-15T20:29:54.652Z,-0.64
2023-04-15T20:32:25.211Z,-0.55
2023-04-15T20:34:55.646Z,-0.43
2023-04-15T20:37:25.976Z,-0.26
2023-04-15T20:39:58.036Z,-0.16
2023-04-15T20:42:28.488Z,-0.15
2023-04-15T20:44:58.894Z,-0.12
2023-04-15T20:47:29.453Z,-0.06
2023-04-15T20:50:00.012Z,-0.01
2023-04-15T20:52:30.601Z,-0.07
2023-04-15T20:55:02.634Z,-0.25
2023-04-15T20:57:33.112Z,-0.01
2023-04-15T21:00:03.588Z,0.11
2023-04-15T21:02:34.233Z,0.15
2023-04-15T21:05:04.867Z,0.19
2023-04-15T21:07:35.253Z,0.25
2023-04-15T21:10:07.592Z,0.28
2023-04-15T21:12:38.457Z,0.27
2023-04-15T21:15:09.896Z,0.28
2023-04-15T21:17:40.464Z,0.38
2023-04-15T21:20:11.958Z,0.41
2023-04-15T21:22:42.378Z,0.48
2023-04-15T21:25:15.104Z,0.52
2023-04-15T21:27:45.902Z,0.56
2023-04-15T21:30:16.811Z,0.78
2023-04-15T21:32:47.598Z,0.85
2023-04-15T21:35:18.220Z,0.83
2023-04-15T21:37:48.763Z,0.91
2023-04-15T21:40:21.221Z,0.93
2023-04-15T21:42:52.562Z,0.90
2023-04-15T21:45:23.036Z,0.82
2023-04-15T21:48:01.243Z,0.87
2023-04-15T21:50:39.202Z,0.84
2023-04-15T21:53:11.582Z,0.80
2023-04-15T21:55:43.852Z,0.85
2023-04-15T21:58:14.427Z,0.83
2023-04-15T22:00:45.003Z,0.84
2023-04-15T22:03:15.996Z,0.83
2023-04-15T22:05:48.829Z,0.43
2023-04-15T22:08:19.364Z,0.78
2023-04-15T22:10:51.472Z,0.84
2023-04-15T22:13:22.022Z,0.86
2023-04-15T22:15:52.476Z,0.88
2023-04-15T22:18:23.016Z,0.89
2023-04-15T22:20:53.714Z,0.92
2023-04-15T22:23:24.408Z,1.05
2023-04-15T22:25:56.882Z,1.05
2023-04-15T22:28:27.340Z,1.04
2023-04-15T22:30:58.889Z,1.04
2023-04-15T22:33:29.472Z,1.07
2023-04-15T22:36:00.366Z,1.08
2023-04-15T22:38:30.956Z,1.11
2023-04-15T22:41:03.233Z,1.09
2023-04-15T22:43:33.695Z,1.15
2023-04-15T22:46:07.523Z,1.14
2023-04-15T22:48:38.174Z,1.06
2023-04-15T22:51:08.920Z,1.28
2023-04-15T22:53:39.409Z,0.96
2023-04-15T22:56:11.805Z,1.28
2023-04-15T22:58:42.652Z,1.25
2023-04-15T23:01:13.359Z,1.27
2023-04-15T23:03:57.178Z,1.33
2023-04-15T23:06:34.616Z,1.36
2023-04-15T23:09:05.094Z,1.42
2023-04-15T23:11:37.406Z,1.48
2023-04-15T23:14:07.947Z,1.50
2023-04-15T23:16:38.694Z,1.54
2023-04-15T23:19:09.821Z,1.58
2023-04-15T23:21:40.368Z,1.60
2023-04-15T23:24:11.148Z,1.57
2023-04-15T23:26:43.308Z,1.51
2023-04-15T23:29:13.889Z,1.35
2023-04-15T23:31:44.476Z,1.40
2023-04-15T23:34:18.118Z,1.35
2023-04-15T23:36:49.285Z,1.37
2023-04-15T23:39:19.886Z,1.46
2023-04-15T23:41:52.476Z,1.56
2023-04-15T23:44:26.310Z,1.62
2023-04-15T23:46:57.032Z,1.63
2023-04-15T23:49:27.758Z,1.51
2023-04-15T23:51:58.391Z,1.57
2023-04-15T23:54:28.994Z,1.57
2023-04-15T23:57:01.110Z,1.63
2023-04-15T23:59:31.552Z,1.40
